createdAt,value
2019-03-04T00:02:14.013Z,85.50
2019-03-04T00:04:43.076Z,86.20
2019-03-04T00:07:12.050Z,86.30
2019-03-04T00:09:41.003Z,87.80
2019-03-04T00:12:10.002Z,87.50
2019-03-04T00:14:39.100Z,88.00
2019-03-04T00:17:08.469Z,88.40
2019-03-04T00:19:37.442Z,88.40
2019-03-04T00:22:06.463Z,89.20
2019-03-04T00:24:35.588Z,89.80
2019-03-04T00:27:04.660Z,90.10
2019-03-04T00:29:34.862Z,90.50
2019-03-04T00:32:03.881Z,90.60
2019-03-04T00:34:33.067Z,90.80
2019-03-04T00:37:02.064Z,90.50
2019-03-04T00:39:36.320Z,90.70
2019-03-04T00:42:05.536Z,90.80
2019-03-04T00:44:34.488Z,91.20
2019-03-04T00:47:03.457Z,91.10
2019-03-04T00:49:32.431Z,91.40
2019-03-04T00:52:01.562Z,91.40
2019-03-04T00:54:30.533Z,91.80
2019-03-04T00:56:59.649Z,91.70
2019-03-04T00:59:28.801Z,91.70
2019-03-04T01:01:57.849Z,91.70
2019-03-04T01:04:26.890Z,91.80
2019-03-04T01:06:55.861Z,91.80
2019-03-04T01:09:24.982Z,92.00
2019-03-04T01:11:54.009Z,92.00
2019-03-04T01:14:23.169Z,92.00
2019-03-04T01:16:52.217Z,92.10
2019-03-04T01:19:21.150Z,91.90
2019-03-04T01:21:50.181Z,92.10
2019-03-04T01:24:19.358Z,92.00
2019-03-04T01:26:48.461Z,91.80
2019-03-04T01:29:17.554Z,91.90
2019-03-04T01:31:46.704Z,91.80
2019-03-04T01:34:15.795Z,91.70
2019-03-04T01:36:44.772Z,91.90
2019-03-04T01:39:13.728Z,91.70
2019-03-04T01:41:45.590Z,91.90
2019-03-04T01:44:14.644Z,91.80
2019-03-04T01:46:43.728Z,91.90
2019-03-04T01:49:15.533Z,92.00
2019-03-04T01:51:44.766Z,91.70
2019-03-04T01:54:13.711Z,92.00
2019-03-04T01:56:42.758Z,91.50
2019-03-04T01:59:11.700Z,91.60
2019-03-04T02:01:40.636Z,91.40
2019-03-04T02:04:10.024Z,91.50
2019-03-04T02:06:39.194Z,91.40
2019-03-04T02:09:08.492Z,91.30
2019-03-04T02:11:37.636Z,91.50
2019-03-04T02:14:06.760Z,91.40
2019-03-04T02:16:35.826Z,91.50
2019-03-04T02:19:04.960Z,91.40
2019-03-04T02:21:33.928Z,91.40
2019-03-04T02:24:20.039Z,91.40
2019-03-04T02:26:49.081Z,91.20
2019-03-04T02:29:18.131Z,91.20
2019-03-04T02:31:47.068Z,91.30
2019-03-04T02:34:16.436Z,91.10
2019-03-04T02:36:45.462Z,91.00
2019-03-04T02:39:14.606Z,91.00
2019-03-04T02:41:43.610Z,90.90
2019-03-04T02:44:12.658Z,90.60
2019-03-04T02:46:41.754Z,90.60
2019-03-04T02:49:10.719Z,90.30
2019-03-04T02:51:40.635Z,90.30
2019-03-04T02:54:09.665Z,90.30
2019-03-04T02:56:38.795Z,90.30
2019-03-04T02:59:07.805Z,90.20
2019-03-04T03:01:36.814Z,90.20
2019-03-04T03:04:05.781Z,90.20
2019-03-04T03:06:34.766Z,90.40
2019-03-04T03:09:05.832Z,90.30
2019-03-04T03:11:34.788Z,90.50
2019-03-04T03:14:03.868Z,90.50
2019-03-04T03:16:32.935Z,90.60
2019-03-04T03:19:02.061Z,90.40
2019-03-04T03:21:31.106Z,90.40
2019-03-04T03:24:00.074Z,90.70
2019-03-04T03:26:29.573Z,90.70
2019-03-04T03:28:58.632Z,90.60
2019-03-04T03:31:27.657Z,90.50
2019-03-04T03:33:56.661Z,90.60
2019-03-04T03:36:25.717Z,90.40
2019-03-04T03:38:54.825Z,90.60
2019-03-04T03:41:23.782Z,90.60
2019-03-04T03:43:52.718Z,90.60
2019-03-04T03:46:21.805Z,90.50
2019-03-04T03:48:50.825Z,90.60
2019-03-04T03:51:19.796Z,90.60
2019-03-04T03:53:48.919Z,90.80
2019-03-04T03:56:18.041Z,90.80
2019-03-04T03:58:47.049Z,90.50
2019-03-04T04:01:17.633Z,90.40
2019-03-04T04:03:46.753Z,90.50
2019-03-04T04:06:15.837Z,90.40
2019-03-04T04:08:44.781Z,90.40
2019-03-04T04:11:13.765Z,90.40
2019-03-04T04:13:42.898Z,90.40
2019-03-04T04:16:11.962Z,90.50
2019-03-04T04:18:41.088Z,90.60
2019-03-04T04:21:10.159Z,90.60
2019-03-04T04:23:39.087Z,90.60
2019-03-04T04:26:09.825Z,90.70
2019-03-04T04:28:39.041Z,90.60
2019-03-04T04:31:08.049Z,90.50
2019-03-04T04:33:37.013Z,90.60
2019-03-04T04:36:05.987Z,90.80
2019-03-04T04:38:35.273Z,90.80
2019-03-04T04:41:04.358Z,91.00
2019-03-04T04:43:33.368Z,91.20
2019-03-04T04:46:02.462Z,91.00
2019-03-04T04:48:31.412Z,91.00
2019-03-04T04:51:00.443Z,91.20
2019-03-04T04:53:29.684Z,91.30
2019-03-04T04:55:58.685Z,91.40
2019-03-04T04:58:27.640Z,91.40
2019-03-04T05:00:56.728Z,91.80
2019-03-04T05:03:25.692Z,92.00
2019-03-04T05:05:54.733Z,91.80
2019-03-04T05:08:23.699Z,92.20
2019-03-04T05:10:52.916Z,92.20
2019-03-04T05:13:21.944Z,92.40
2019-03-04T05:15:50.961Z,92.40
2019-03-04T05:18:19.936Z,92.30
2019-03-04T05:20:49.013Z,92.30
2019-03-04T05:23:17.965Z,92.80
2019-03-04T05:25:47.253Z,93.10
2019-03-04T05:28:16.204Z,93.10
2019-03-04T05:30:45.183Z,93.10
2019-03-04T05:33:14.253Z,93.20
2019-03-04T05:35:43.240Z,93.20
2019-03-04T05:38:12.226Z,93.30
2019-03-04T05:40:41.203Z,93.10
2019-03-04T05:43:10.293Z,92.90
2019-03-04T05:45:39.320Z,92.80
2019-03-04T05:48:08.269Z,92.80
2019-03-04T05:50:37.513Z,92.90
2019-03-04T05:53:06.592Z,92.90
2019-03-04T05:55:35.637Z,93.00
2019-03-04T05:58:04.686Z,93.00
2019-03-04T06:00:47.011Z,93.00
2019-03-04T06:03:23.053Z,93.00
2019-03-04T06:05:52.001Z,93.00
2019-03-04T06:08:21.041Z,92.70
2019-03-04T06:10:50.085Z,92.60
2019-03-04T06:13:19.084Z,92.50
2019-03-04T06:15:48.073Z,92.30
2019-03-04T06:18:17.023Z,92.20
2019-03-04T06:20:45.990Z,92.00
2019-03-04T06:23:15.156Z,91.90
2019-03-04T06:25:44.106Z,91.70
2019-03-04T06:28:13.036Z,91.50
2019-03-04T06:30:42.142Z,91.40
2019-03-04T06:33:11.179Z,91.10
2019-03-04T06:35:40.178Z,91.20
2019-03-04T06:38:09.405Z,91.10
2019-03-04T06:41:01.528Z,91.00
2019-03-04T06:43:37.881Z,90.80
2019-03-04T06:46:03.934Z,90.50
2019-03-04T06:48:42.617Z,90.30
2019-03-04T06:51:21.596Z,90.20
2019-03-04T06:54:13.154Z,90.00
2019-03-04T06:56:48.200Z,89.20
2019-03-04T07:02:36.408Z,88.60
2019-03-04T07:05:33.841Z,88.60
2019-03-04T07:08:03.263Z,87.90
2019-03-04T07:10:32.374Z,82.80
2019-03-04T07:13:01.523Z,74.60
2019-03-04T07:15:30.524Z,72.70
2019-03-04T07:17:59.639Z,65.30
2019-03-04T07:20:28.576Z,65.70
2019-03-04T07:22:57.607Z,62.10
2019-03-04T07:25:26.739Z,56.00
2019-03-04T07:27:55.785Z,53.00
2019-03-04T07:30:24.934Z,52.30
2019-03-04T07:32:53.907Z,51.50
2019-03-04T07:35:22.933Z,50.50
2019-03-04T07:38:13.099Z,51.40
2019-03-04T07:40:42.145Z,55.70
2019-03-04T07:43:11.377Z,58.80
2019-03-04T07:45:40.845Z,59.70
2019-03-04T07:48:09.822Z,61.20
2019-03-04T07:50:39.203Z,60.90
2019-03-04T07:53:08.281Z,61.50
2019-03-04T07:55:37.534Z,61.50
2019-03-04T07:58:06.478Z,63.70
2019-03-04T08:00:35.460Z,63.00
2019-03-04T08:03:04.680Z,63.90
2019-03-04T08:05:33.860Z,62.00
2019-03-04T08:08:11.933Z,63.00
2019-03-04T08:10:50.013Z,61.50
2019-03-04T08:13:28.041Z,57.60
2019-03-04T08:15:57.165Z,54.40
2019-03-04T08:18:26.204Z,53.00
2019-03-04T08:20:55.216Z,52.50
2019-03-04T08:23:24.256Z,52.00
2019-03-04T08:25:54.428Z,54.80
2019-03-04T08:28:23.382Z,54.20
2019-03-04T08:30:52.499Z,50.00
2019-03-04T08:33:21.679Z,48.70
2019-03-04T08:35:50.694Z,49.60
2019-03-04T08:38:19.741Z,49.70
2019-03-04T08:40:48.913Z,50.20
2019-03-04T08:43:17.969Z,50.30
2019-03-04T08:45:46.987Z,51.10
2019-03-04T08:48:16.072Z,51.40
2019-03-04T08:50:45.096Z,53.10
2019-03-04T08:53:14.131Z,53.70
2019-03-04T08:55:45.287Z,55.60
2019-03-04T08:58:14.021Z,57.10
2019-03-04T09:00:43.038Z,57.70
2019-03-04T09:03:12.281Z,58.00
2019-03-04T09:05:41.277Z,58.30
2019-03-04T09:08:10.318Z,59.00
2019-03-04T09:10:39.570Z,59.30
2019-03-04T09:13:08.846Z,59.80
2019-03-04T09:15:37.782Z,59.80
2019-03-04T09:18:06.897Z,60.40
2019-03-04T09:20:35.839Z,61.10
2019-03-04T09:23:05.006Z,61.90
2019-03-04T09:25:36.856Z,63.30
2019-03-04T09:28:06.011Z,65.10
2019-03-04T09:30:35.273Z,66.00
2019-03-04T09:33:04.895Z,67.50
2019-03-04T09:35:34.057Z,67.60
2019-03-04T09:38:03.266Z,68.00
2019-03-04T09:40:36.357Z,69.30
2019-03-04T09:43:06.774Z,71.40
2019-03-04T09:45:39.240Z,72.40
2019-03-04T09:48:06.618Z,73.60
2019-03-04T09:50:35.625Z,73.90
2019-03-04T09:53:04.742Z,74.70
2019-03-04T09:55:33.853Z,74.90
2019-03-04T09:58:02.901Z,76.20
2019-03-04T10:00:46.763Z,77.30
2019-03-04T10:03:40.251Z,78.90
2019-03-04T10:06:18.593Z,78.80
2019-03-04T10:09:08.961Z,79.60
2019-03-04T10:11:41.240Z,80.80
2019-03-04T10:14:48.215Z,81.10
2019-03-04T10:17:26.172Z,80.80
2019-03-04T10:20:03.817Z,82.00
2019-03-04T10:22:39.133Z,82.80
2019-03-04T10:25:34.981Z,83.90
2019-03-04T10:28:15.630Z,85.00
2019-03-04T10:30:56.357Z,86.80
2019-03-04T10:33:37.112Z,87.80
2019-03-04T10:36:12.072Z,89.00
2019-03-04T10:38:56.269Z,90.00
2019-03-04T10:41:44.849Z,89.00
2019-03-04T10:44:19.536Z,88.40
2019-03-04T10:46:58.697Z,88.00
2019-03-04T10:49:28.478Z,88.90
2019-03-04T10:51:57.736Z,90.20
2019-03-04T10:54:26.886Z,89.70
2019-03-04T10:56:55.907Z,89.90
2019-03-04T10:59:24.948Z,90.10
2019-03-04T11:01:54.062Z,89.80
2019-03-04T11:04:23.170Z,89.40
2019-03-04T11:06:54.800Z,87.30
2019-03-04T11:09:23.578Z,86.40
2019-03-04T11:11:53.354Z,88.10
2019-03-04T11:14:22.466Z,88.20
2019-03-04T11:16:51.512Z,89.60
2019-03-04T11:19:20.542Z,89.80
2019-03-04T11:21:49.826Z,89.40
2019-03-04T11:24:19.056Z,88.60
2019-03-04T11:26:48.196Z,88.40
2019-03-04T11:29:17.324Z,88.90
2019-03-04T11:31:46.346Z,88.80
2019-03-04T11:34:15.830Z,88.50
2019-03-04T11:36:44.778Z,89.40
2019-03-04T11:39:18.481Z,88.90
2019-03-04T11:41:47.459Z,89.10
2019-03-04T11:44:16.588Z,88.20
2019-03-04T11:46:45.604Z,88.10
2019-03-04T11:49:14.766Z,88.10
2019-03-04T11:51:43.839Z,87.30
2019-03-04T11:54:12.959Z,86.00
2019-03-04T11:56:42.015Z,85.80
2019-03-04T11:59:11.073Z,85.70
2019-03-04T12:01:41.972Z,84.70
2019-03-04T12:04:11.135Z,85.00
2019-03-04T12:06:40.244Z,84.00
2019-03-04T12:09:12.358Z,84.50
2019-03-04T12:11:41.321Z,83.30
2019-03-04T12:14:10.354Z,82.70
2019-03-04T12:16:39.377Z,82.10
2019-03-04T12:19:08.556Z,82.20
2019-03-04T12:21:37.769Z,81.50
2019-03-04T12:24:07.264Z,81.00
2019-03-04T12:26:36.388Z,80.80
2019-03-04T12:29:05.326Z,80.50
2019-03-04T12:31:35.979Z,80.20
2019-03-04T12:34:05.053Z,79.20
2019-03-04T12:36:34.219Z,79.50
2019-03-04T12:39:05.900Z,78.70
2019-03-04T12:41:35.114Z,78.00
2019-03-04T12:44:04.154Z,78.40
2019-03-04T12:46:33.174Z,77.40
2019-03-04T12:49:02.102Z,76.10
2019-03-04T12:51:31.192Z,76.30
2019-03-04T12:54:00.169Z,76.20
2019-03-04T12:56:29.534Z,76.30
2019-03-04T12:58:58.495Z,75.10
2019-03-04T13:01:27.523Z,75.10
2019-03-04T13:03:56.525Z,75.30
2019-03-04T13:06:25.742Z,75.20
2019-03-04T13:08:54.947Z,74.60
2019-03-04T13:11:24.088Z,76.00
2019-03-04T13:13:53.461Z,75.70
2019-03-04T13:16:22.637Z,76.00
2019-03-04T13:18:51.989Z,75.60
2019-03-04T13:21:21.338Z,75.30
2019-03-04T13:23:50.542Z,75.90
2019-03-04T13:26:21.115Z,74.80
2019-03-04T13:28:50.119Z,74.50
2019-03-04T13:31:19.590Z,73.40
2019-03-04T13:33:48.726Z,72.40
2019-03-04T13:36:18.101Z,72.80
2019-03-04T13:38:47.337Z,71.80
2019-03-04T13:41:16.395Z,71.50
2019-03-04T13:43:45.402Z,70.40
2019-03-04T13:46:14.957Z,69.90
2019-03-04T13:48:43.946Z,68.10
2019-03-04T13:51:12.884Z,67.00
2019-03-04T13:53:41.971Z,67.80
2019-03-04T13:56:11.069Z,65.90
2019-03-04T13:58:40.275Z,66.20
2019-03-04T14:01:09.559Z,64.80
2019-03-04T14:03:38.900Z,64.60
2019-03-04T14:06:07.900Z,64.40
2019-03-04T14:08:37.125Z,63.80
2019-03-04T14:11:06.323Z,62.60
2019-03-04T14:13:35.439Z,63.00
2019-03-04T14:16:04.937Z,62.50
2019-03-04T14:18:34.163Z,63.10
2019-03-04T14:21:03.439Z,62.80
2019-03-04T14:23:32.566Z,61.50
2019-03-04T14:26:01.837Z,59.70
2019-03-04T14:28:47.244Z,60.20
2019-03-04T14:31:16.355Z,60.40
2019-03-04T14:33:45.398Z,59.30
2019-03-04T14:36:14.905Z,59.70
2019-03-04T14:38:43.972Z,59.90
2019-03-04T14:41:13.422Z,59.40
2019-03-04T14:43:42.519Z,58.50
2019-03-04T14:46:14.785Z,58.10
2019-03-04T14:48:43.915Z,58.00
2019-03-04T14:51:13.280Z,58.10
2019-03-04T14:53:42.349Z,58.20
2019-03-04T14:56:11.770Z,56.40
2019-03-04T14:58:40.949Z,56.50
2019-03-04T15:01:11.798Z,56.10
2019-03-04T15:03:41.131Z,56.70
2019-03-04T15:06:10.563Z,55.90
2019-03-04T15:08:39.916Z,56.00
2019-03-04T15:11:09.242Z,56.40
2019-03-04T15:13:38.599Z,56.60
2019-03-04T15:16:07.818Z,56.20
2019-03-04T15:18:37.028Z,55.80
2019-03-04T15:21:07.308Z,55.70
2019-03-04T15:23:36.433Z,55.60
2019-03-04T15:26:05.810Z,56.00
2019-03-04T15:28:34.898Z,55.80
2019-03-04T15:31:04.655Z,56.40
2019-03-04T15:33:33.790Z,56.90
2019-03-04T15:36:03.013Z,57.90
2019-03-04T15:38:32.219Z,58.80
2019-03-04T15:41:01.597Z,59.20
2019-03-04T15:43:30.681Z,60.00
2019-03-04T15:45:59.853Z,59.80
2019-03-04T15:48:29.611Z,60.40
2019-03-04T15:50:58.688Z,61.10
2019-03-04T15:53:28.121Z,60.80
2019-03-04T15:55:57.282Z,60.50
2019-03-04T15:58:26.633Z,60.00
2019-03-04T16:00:56.000Z,59.80
2019-03-04T16:03:25.091Z,60.40
2019-03-04T16:05:54.236Z,58.90
2019-03-04T16:08:23.370Z,58.10
2019-03-04T16:10:52.592Z,56.40
2019-03-04T16:13:21.728Z,55.50
2019-03-04T16:15:50.904Z,54.80
2019-03-04T16:18:20.414Z,55.60
2019-03-04T16:20:49.503Z,56.40
2019-03-04T16:23:18.549Z,57.40
2019-03-04T16:25:48.333Z,58.00
2019-03-04T16:28:22.821Z,58.00
2019-03-04T16:30:52.078Z,59.00
2019-03-04T16:33:21.462Z,59.20
2019-03-04T16:35:50.566Z,59.50
2019-03-04T16:38:19.900Z,60.50
2019-03-04T16:40:49.070Z,59.20
2019-03-04T16:43:18.049Z,59.70
2019-03-04T16:45:47.126Z,59.80
2019-03-04T16:48:16.163Z,60.90
2019-03-04T16:50:47.417Z,61.10
2019-03-04T16:53:25.015Z,62.40
2019-03-04T16:55:54.158Z,62.90
2019-03-04T16:58:23.323Z,63.70
2019-03-04T17:00:52.556Z,65.00
2019-03-04T17:03:21.664Z,66.30
2019-03-04T17:05:50.989Z,65.60
2019-03-04T17:08:20.133Z,66.60
2019-03-04T17:10:49.307Z,66.20
2019-03-04T17:13:18.340Z,66.30
2019-03-04T17:15:47.508Z,66.90
2019-03-04T17:18:17.516Z,67.20
2019-03-04T17:20:46.955Z,66.70
2019-03-04T17:23:15.962Z,67.10
2019-03-04T17:25:45.317Z,67.10
2019-03-04T17:28:15.047Z,67.20
2019-03-04T17:30:44.354Z,67.40
2019-03-04T17:33:20.692Z,67.30
2019-03-04T17:35:49.828Z,67.60
2019-03-04T17:38:18.925Z,68.10
2019-03-04T17:40:48.031Z,68.10
2019-03-04T17:43:17.494Z,68.40
2019-03-04T17:45:46.970Z,68.80
2019-03-04T17:48:16.152Z,68.30
2019-03-04T17:50:46.947Z,68.40
2019-03-04T17:53:16.700Z,68.70
2019-03-04T17:55:46.343Z,69.00
2019-03-04T17:58:15.421Z,68.90
2019-03-04T18:00:49.065Z,69.20
2019-03-04T18:03:18.033Z,69.80
2019-03-04T18:05:47.207Z,70.70
2019-03-04T18:08:16.274Z,71.80
2019-03-04T18:10:45.501Z,72.70
2019-03-04T18:13:15.992Z,74.00
2019-03-04T18:15:45.527Z,73.90
2019-03-04T18:18:14.642Z,74.70
2019-03-04T18:20:43.785Z,75.40
2019-03-04T18:23:13.128Z,75.00
2019-03-04T18:25:48.125Z,75.20
2019-03-04T18:28:35.318Z,76.10
2019-03-04T18:31:23.733Z,76.80
2019-03-04T18:34:10.165Z,78.70
2019-03-04T18:36:43.248Z,84.70
2019-03-04T18:39:27.003Z,87.80
2019-03-04T18:42:04.862Z,89.20
2019-03-04T18:44:46.074Z,90.20
2019-03-04T18:47:33.105Z,90.70
2019-03-04T18:50:02.472Z,90.70
2019-03-04T18:52:31.689Z,90.90
2019-03-04T18:55:00.669Z,90.40
2019-03-04T18:57:29.758Z,90.20
2019-03-04T18:59:58.934Z,89.40
2019-03-04T19:02:27.930Z,88.40
2019-03-04T19:04:58.485Z,87.60
2019-03-04T19:07:27.486Z,87.70
2019-03-04T19:09:56.834Z,86.40
2019-03-04T19:12:25.847Z,86.20
2019-03-04T19:14:54.975Z,85.40
2019-03-04T19:17:33.180Z,84.70
2019-03-04T19:19:55.208Z,83.70
2019-03-04T19:22:24.223Z,83.40
2019-03-04T19:24:53.416Z,82.70
2019-03-04T19:27:22.374Z,80.90
2019-03-04T19:29:51.365Z,80.70
2019-03-04T19:32:20.534Z,80.30
2019-03-04T19:34:49.741Z,76.80
2019-03-04T19:37:18.838Z,76.30
2019-03-04T19:39:47.847Z,74.70
2019-03-04T19:42:16.982Z,73.60
2019-03-04T19:44:46.097Z,70.40
2019-03-04T19:47:15.531Z,70.00
2019-03-04T19:49:44.638Z,69.10
2019-03-04T19:52:13.757Z,67.90
2019-03-04T19:54:42.757Z,66.60
2019-03-04T19:57:11.961Z,65.60
2019-03-04T19:59:40.930Z,64.90
2019-03-04T20:02:10.145Z,64.50
2019-03-04T20:04:39.458Z,64.30
2019-03-04T20:07:08.751Z,64.20
2019-03-04T20:09:37.762Z,64.30
2019-03-04T20:12:07.091Z,64.20
2019-03-04T20:14:36.115Z,63.20
2019-03-04T20:17:05.517Z,63.30
2019-03-04T20:19:36.847Z,64.50
2019-03-04T20:22:05.685Z,62.80
2019-03-04T20:24:34.689Z,62.80
2019-03-04T20:27:03.808Z,62.20
2019-03-04T20:29:33.078Z,62.70
2019-03-04T20:32:02.181Z,63.20
2019-03-04T20:34:31.280Z,63.50
2019-03-04T20:37:00.456Z,63.20
2019-03-04T20:39:29.546Z,63.30
2019-03-04T20:42:00.713Z,63.90
2019-03-04T20:44:29.631Z,63.90
2019-03-04T20:46:58.728Z,64.20
2019-03-04T20:49:27.797Z,64.10
2019-03-04T20:51:57.126Z,63.90
2019-03-04T20:54:26.325Z,63.90
2019-03-04T20:56:55.541Z,64.00
2019-03-04T20:59:24.604Z,64.30
2019-03-04T21:01:53.710Z,65.00
2019-03-04T21:04:23.196Z,64.30
2019-03-04T21:06:52.259Z,66.10
2019-03-04T21:09:21.878Z,78.50
2019-03-04T21:11:50.997Z,87.40
2019-03-04T21:14:20.121Z,91.10
2019-03-04T21:16:49.324Z,92.40
2019-03-04T21:19:18.457Z,93.70
2019-03-04T21:21:47.939Z,94.70
2019-03-04T21:24:17.053Z,95.70
2019-03-04T21:26:46.362Z,96.00
2019-03-04T21:29:30.789Z,95.90
2019-03-04T21:32:05.562Z,96.40
2019-03-04T21:34:57.379Z,96.40
2019-03-04T21:37:29.883Z,96.60
2019-03-04T21:40:01.963Z,96.60
2019-03-04T21:42:39.719Z,96.90
2019-03-04T21:45:24.846Z,96.80
2019-03-04T21:48:11.832Z,96.50
2019-03-04T21:51:00.471Z,96.60
2019-03-04T21:53:35.224Z,96.10
2019-03-04T21:56:28.541Z,96.00
2019-03-04T21:58:58.133Z,95.70
2019-03-04T22:01:45.253Z,95.50
2019-03-04T22:04:14.354Z,95.30
2019-03-04T22:06:43.655Z,95.70
2019-03-04T22:09:13.413Z,95.50
2019-03-04T22:11:42.528Z,95.00
2019-03-04T22:14:11.719Z,95.20
2019-03-04T22:16:40.928Z,95.20
2019-03-04T22:19:09.939Z,94.80
2019-03-04T22:21:38.896Z,94.80
2019-03-04T22:24:07.943Z,94.80
2019-03-04T22:26:37.324Z,94.70
2019-03-04T22:29:06.594Z,94.50
2019-03-04T22:31:36.000Z,94.70
2019-03-04T22:34:05.352Z,94.90
2019-03-04T22:36:34.653Z,94.80
2019-03-04T22:39:05.667Z,94.60
2019-03-04T22:41:35.207Z,94.60
2019-03-04T22:44:04.553Z,94.80
2019-03-04T22:46:33.776Z,94.90
2019-03-04T22:49:02.933Z,95.00
2019-03-04T22:51:32.041Z,94.40
2019-03-04T22:54:01.134Z,94.20
2019-03-04T22:56:30.233Z,94.30
2019-03-04T22:58:59.554Z,94.10
2019-03-04T23:01:34.819Z,94.20
2019-03-04T23:04:09.805Z,94.10
2019-03-04T23:06:59.640Z,94.40
2019-03-04T23:09:35.324Z,94.20
2019-03-04T23:12:16.177Z,94.30
2019-03-04T23:14:45.884Z,94.30
2019-03-04T23:17:14.819Z,94.20
2019-03-04T23:19:44.557Z,94.10
2019-03-04T23:22:13.811Z,94.00
2019-03-04T23:24:43.026Z,94.20
2019-03-04T23:27:11.991Z,94.20
2019-03-04T23:29:41.123Z,94.20
2019-03-04T23:32:10.226Z,94.20
2019-03-04T23:34:43.386Z,94.20
2019-03-04T23:37:12.353Z,94.10
2019-03-04T23:39:41.615Z,94.10
2019-03-04T23:42:10.547Z,94.10
2019-03-04T23:44:40.251Z,94.00
2019-03-04T23:47:09.285Z,93.90
2019-03-04T23:49:38.264Z,93.70
2019-03-04T23:52:07.563Z,93.70
2019-03-04T23:54:36.548Z,93.80
2019-03-04T23:57:05.785Z,93.90
2019-03-04T23:59:34.787Z,93.70
